Time,TemperatureF,DewpointF,PressureIn,WindDirection,WindDirectionDegrees,WindSpeedMPH,WindSpeedGustMPH,Humidity,HourlyPrecipIn,Conditions,Clouds,dailyrainin,SoftwareType,DateUTC
2013-12-12 00:02:00,8.6,-10.8,31.92,NE,45,0.0,2.0,40,0.00,,,0.00,meteohub,2013-12-12 07:02:00,
2013-12-12 00:07:00,7.9,-11.9,31.92,West,270,0.0,2.0,39,0.00,,,0.00,meteohub,2013-12-12 07:07:00,
2013-12-12 00:12:00,7.3,-13.0,31.92,West,270,0.0,1.0,38,0.00,,,0.00,meteohub,2013-12-12 07:12:00,
2013-12-12 00:17:00,6.8,-13.4,31.91,West,270,0.0,0.0,38,0.00,,,0.00,meteohub,2013-12-12 07:17:00,
2013-12-12 00:22:00,7.0,-12.8,31.91,West,270,0.0,0.0,39,0.00,,,0.00,meteohub,2013-12-12 07:22:00,
2013-12-12 00:27:00,6.6,-12.6,31.92,East,90,0.0,0.0,40,0.00,,,0.00,meteohub,2013-12-12 07:27:00,
2013-12-12 00:32:00,5.7,-13.9,31.91,South,180,0.0,0.0,39,0.00,,,0.00,meteohub,2013-12-12 07:32:00,
2013-12-12 00:37:00,5.0,-14.1,31.91,South,180,0.0,0.0,40,0.00,,,0.00,meteohub,2013-12-12 07:37:00,
2013-12-12 00:42:00,4.5,-13.5,31.91,NE,45,0.0,0.0,42,0.00,,,0.00,meteohub,2013-12-12 07:42:00,
2013-12-12 00:47:00,4.1,-13.0,31.92,NE,45,0.0,0.0,44,0.00,,,0.00,meteohub,2013-12-12 07:47:00,
2013-12-12 00:52:00,3.9,-13.2,31.91,South,180,0.0,0.0,44,0.00,,,0.00,meteohub,2013-12-12 07:52:00,
2013-12-12 00:57:00,3.4,-13.7,31.92,South,180,0.0,0.0,44,0.00,,,0.00,meteohub,2013-12-12 07:57:00,
2013-12-12 01:02:00,3.4,-13.7,31.91,South,180,0.0,0.0,44,0.00,,,0.00,meteohub,2013-12-12 08:02:00,
2013-12-12 01:07:00,3.4,-13.7,31.92,South,180,0.0,0.0,44,0.00,,,0.00,meteohub,2013-12-12 08:07:00,
2013-12-12 01:12:00,3.6,-13.0,31.91,SW,225,0.0,0.0,45,0.00,,,0.00,meteohub,2013-12-12 08:12:00,
2013-12-12 01:17:00,3.7,-12.5,31.91,SW,225,0.0,0.0,46,0.00,,,0.00,meteohub,2013-12-12 08:17:00,
2013-12-12 01:22:00,3.7,-12.5,31.91,West,270,0.0,0.0,46,0.00,,,0.00,meteohub,2013-12-12 08:22:00,
2013-12-12 01:27:00,3.7,-12.5,31.91,West,270,0.0,0.0,46,0.00,,,0.00,meteohub,2013-12-12 08:27:00,
2013-12-12 01:32:00,3.7,-12.5,31.91,South,180,0.0,0.0,46,0.00,,,0.00,meteohub,2013-12-12 08:32:00,
2013-12-12 01:37:00,3.2,-13.0,31.91,South,180,0.0,0.0,46,0.00,,,0.00,meteohub,2013-12-12 08:37:00,
2013-12-12 01:42:00,3.2,-13.0,31.91,SE,135,0.0,0.0,46,0.00,,,0.00,meteohub,2013-12-12 08:42:00,
2013-12-12 01:47:00,4.1,-11.7,31.91,West,270,0.0,0.0,47,0.00,,,0.00,meteohub,2013-12-12 08:47:00,
2013-12-12 01:52:00,4.5,-11.4,31.91,SW,225,0.0,0.0,47,0.00,,,0.00,meteohub,2013-12-12 08:52:00,
2013-12-12 01:57:00,4.5,-11.4,31.91,SW,225,0.0,0.0,47,0.00,,,0.00,meteohub,2013-12-12 08:57:00,
2013-12-12 02:02:00,4.5,-11.4,31.91,SW,225,0.0,0.0,47,0.00,,,0.00,meteohub,2013-12-12 09:02:00,
2013-12-12 02:07:00,4.6,-11.2,31.92,SW,225,0.0,0.0,47,0.00,,,0.00,meteohub,2013-12-12 09:07:00,
2013-12-12 02:12:00,4.6,-11.6,31.92,South,180,0.0,0.0,46,0.00,,,0.00,meteohub,2013-12-12 09:12:00,
2013-12-12 02:17:00,4.6,-11.6,31.92,West,270,0.0,0.0,46,0.00,,,0.00,meteohub,2013-12-12 09:17:00,
2013-12-12 02:22:00,4.6,-11.6,31.92,SW,225,0.0,0.0,46,0.00,,,0.00,meteohub,2013-12-12 09:22:00,
2013-12-12 02:27:00,4.5,-11.7,31.92,SW,225,0.0,0.0,46,0.00,,,0.00,meteohub,2013-12-12 09:27:00,
2013-12-12 02:32:00,4.5,-11.7,31.92,West,270,0.0,0.0,46,0.00,,,0.00,meteohub,2013-12-12 09:32:00,
2013-12-12 02:37:00,4.6,-11.6,31.92,West,270,0.0,0.0,46,0.00,,,0.00,meteohub,2013-12-12 09:37:00,
2013-12-12 02:42:00,4.3,-11.9,31.92,SW,225,0.0,0.0,46,0.00,,,0.00,meteohub,2013-12-12 09:42:00,
2013-12-12 02:47:00,3.7,-12.5,31.92,West,270,0.0,0.0,46,0.00,,,0.00,meteohub,2013-12-12 09:47:00,
2013-12-12 02:52:00,3.6,-12.6,31.92,South,180,0.0,0.0,46,0.00,,,0.00,meteohub,2013-12-12 09:52:00,
2013-12-12 02:57:00,3.6,-12.6,31.92,SW,225,0.0,0.0,46,0.00,,,0.00,meteohub,2013-12-12 09:57:00,
2013-12-12 03:02:00,3.7,-12.5,31.93,NW,315,0.0,0.0,46,0.00,,,0.00,meteohub,2013-12-12 10:02:00,
2013-12-12 03:07:00,3.7,-12.5,31.93,NW,315,0.0,0.0,46,0.00,,,0.00,meteohub,2013-12-12 10:07:00,
2013-12-12 03:12:00,3.9,-12.3,31.92,West,270,0.0,0.0,46,0.00,,,0.00,meteohub,2013-12-12 10:12:00,
2013-12-12 03:17:00,4.1,-11.7,31.93,SW,225,0.0,0.0,47,0.00,,,0.00,meteohub,2013-12-12 10:17:00,
2013-12-12 03:22:00,3.9,-12.3,31.92,West,270,0.0,0.0,46,0.00,,,0.00,meteohub,2013-12-12 10:22:00,
2013-12-12 03:27:00,3.6,-12.6,31.93,West,270,0.0,0.0,46,0.00,,,0.00,meteohub,2013-12-12 10:27:00,
2013-12-12 03:32:00,3.2,-13.0,31.92,SW,225,0.0,0.0,46,0.00,,,0.00,meteohub,2013-12-12 10:32:00,
2013-12-12 03:37:00,2.8,-12.8,31.92,SW,225,0.0,0.0,47,0.00,,,0.00,meteohub,2013-12-12 10:37:00,
2013-12-12 03:42:00,2.7,-13.0,31.92,SW,225,0.0,0.0,47,0.00,,,0.00,meteohub,2013-12-12 10:42:00,
2013-12-12 03:47:00,3.0,-12.3,31.92,SW,225,0.0,0.0,48,0.00,,,0.00,meteohub,2013-12-12 10:47:00,
2013-12-12 03:52:00,3.4,-12.3,31.93,West,270,0.0,0.0,47,0.00,,,0.00,meteohub,2013-12-12 10:52:00,
2013-12-12 03:57:00,3.6,-12.1,31.92,West,270,0.0,0.0,47,0.00,,,0.00,meteohub,2013-12-12 10:57:00,
2013-12-12 04:02:00,3.7,-11.6,31.92,SW,225,0.0,0.0,48,0.00,,,0.00,meteohub,2013-12-12 11:02:00,
2013-12-12 04:07:00,3.9,-11.4,31.92,SW,225,0.0,0.0,48,0.00,,,0.00,meteohub,2013-12-12 11:07:00,
2013-12-12 04:12:00,3.9,-11.4,31.92,SW,225,0.0,0.0,48,0.00,,,0.00,meteohub,2013-12-12 11:12:00,
2013-12-12 04:17:00,4.1,-11.2,31.92,SW,225,0.0,0.0,48,0.00,,,0.00,meteohub,2013-12-12 11:17:00,
2013-12-12 04:22:00,4.5,-10.8,31.93,West,270,0.0,0.0,48,0.00,,,0.00,meteohub,2013-12-12 11:22:00,
2013-12-12 04:27:00,5.2,-10.7,31.92,West,270,0.0,0.0,47,0.00,,,0.00,meteohub,2013-12-12 11:27:00,
2013-12-12 04:32:00,5.7,-10.7,31.92,North,0,0.0,0.0,46,0.00,,,0.00,meteohub,2013-12-12 11:32:00,
2013-12-12 04:37:00,6.1,-10.3,31.92,West,270,0.0,0.0,46,0.00,,,0.00,meteohub,2013-12-12 11:37:00,
2013-12-12 04:42:00,5.9,-10.8,31.93,West,270,0.0,0.0,45,0.00,,,0.00,meteohub,2013-12-12 11:42:00,
2013-12-12 04:47:00,5.5,-11.2,31.92,SW,225,0.0,0.0,45,0.00,,,0.00,meteohub,2013-12-12 11:47:00,
2013-12-12 04:52:00,5.2,-11.6,31.92,West,270,0.0,0.0,45,0.00,,,0.00,meteohub,2013-12-12 11:52:00,
2013-12-12 04:57:00,5.0,-11.7,31.92,East,90,0.0,0.0,45,0.00,,,0.00,meteohub,2013-12-12 11:57:00,
2013-12-12 05:02:00,4.5,-11.7,31.93,East,90,0.0,0.0,46,0.00,,,0.00,meteohub,2013-12-12 12:02:00,
2013-12-12 05:07:00,4.5,-11.7,31.93,East,90,0.0,0.0,46,0.00,,,0.00,meteohub,2013-12-12 12:07:00,
2013-12-12 05:12:00,2.8,-13.2,31.92,South,180,0.0,0.0,46,0.00,,,0.00,meteohub,2013-12-12 12:12:00,
2013-12-12 05:17:00,2.5,-13.5,31.92,South,180,0.0,0.0,46,0.00,,,0.00,meteohub,2013-12-12 12:17:00,
2013-12-12 05:22:00,2.3,-13.4,31.92,South,180,0.0,0.0,47,0.00,,,0.00,meteohub,2013-12-12 12:22:00,
2013-12-12 05:27:00,2.3,-13.4,31.92,NW,315,0.0,0.0,47,0.00,,,0.00,meteohub,2013-12-12 12:27:00,
2013-12-12 05:32:00,2.3,-12.8,31.92,South,180,0.0,0.0,48,0.00,,,0.00,meteohub,2013-12-12 12:32:00,
2013-12-12 05:37:00,2.3,-12.8,31.92,South,180,0.0,0.0,48,0.00,,,0.00,meteohub,2013-12-12 12:37:00,
2013-12-12 05:42:00,2.1,-13.0,31.92,South,180,0.0,0.0,48,0.00,,,0.00,meteohub,2013-12-12 12:42:00,
2013-12-12 05:47:00,1.9,-13.2,31.92,SW,225,0.0,0.0,48,0.00,,,0.00,meteohub,2013-12-12 12:47:00,
2013-12-12 05:52:00,2.1,-12.6,31.92,West,270,0.0,0.0,49,0.00,,,0.00,meteohub,2013-12-12 12:52:00,
2013-12-12 05:57:00,2.5,-12.3,31.92,West,270,0.0,0.0,49,0.00,,,0.00,meteohub,2013-12-12 12:57:00,
2013-12-12 06:02:00,3.2,-11.7,31.92,West,270,0.0,0.0,49,0.00,,,0.00,meteohub,2013-12-12 13:02:00,
2013-12-12 06:07:00,4.1,-10.8,31.92,SW,225,0.0,0.0,49,0.00,,,0.00,meteohub,2013-12-12 13:07:00,
2013-12-12 06:12:00,4.1,-10.8,31.92,South,180,0.0,0.0,49,0.00,,,0.00,meteohub,2013-12-12 13:12:00,
2013-12-12 06:17:00,3.7,-11.6,31.92,South,180,0.0,0.0,48,0.00,,,0.00,meteohub,2013-12-12 13:17:00,
2013-12-12 06:22:00,3.4,-11.9,31.93,SW,225,0.0,0.0,48,0.00,,,0.00,meteohub,2013-12-12 13:22:00,
2013-12-12 06:27:00,3.0,-12.3,31.92,SW,225,0.0,0.0,48,0.00,,,0.00,meteohub,2013-12-12 13:27:00,
2013-12-12 06:32:00,3.0,-11.7,31.92,SW,225,0.0,0.0,49,0.00,,,0.00,meteohub,2013-12-12 13:32:00,
2013-12-12 06:37:00,3.2,-12.1,31.92,SW,225,0.0,0.0,48,0.00,,,0.00,meteohub,2013-12-12 13:37:00,
2013-12-12 06:42:00,3.2,-12.1,31.92,NW,315,0.0,0.0,48,0.00,,,0.00,meteohub,2013-12-12 13:42:00,
2013-12-12 06:47:00,3.0,-11.7,31.92,South,180,0.0,0.0,49,0.00,,,0.00,meteohub,2013-12-12 13:47:00,
2013-12-12 06:52:00,3.4,-11.9,31.93,SW,225,0.0,0.0,48,0.00,,,0.00,meteohub,2013-12-12 13:52:00,
2013-12-12 06:57:00,3.6,-11.7,31.92,SW,225,0.0,0.0,48,0.00,,,0.00,meteohub,2013-12-12 13:57:00,
2013-12-12 07:02:00,3.9,-11.4,31.92,SW,225,0.0,0.0,48,0.00,,,0.00,meteohub,2013-12-12 14:02:00,
2013-12-12 07:07:00,3.9,-11.4,31.92,SW,225,0.0,0.0,48,0.00,,,0.00,meteohub,2013-12-12 14:07:00,
2013-12-12 07:12:00,3.9,-11.4,31.93,SW,225,0.0,0.0,48,0.00,,,0.00,meteohub,2013-12-12 14:12:00,
2013-12-12 07:17:00,3.9,-11.4,31.93,West,270,0.0,0.0,48,0.00,,,0.00,meteohub,2013-12-12 14:17:00,
2013-12-12 07:22:00,3.6,-11.7,31.92,South,180,0.0,0.0,48,0.00,,,0.00,meteohub,2013-12-12 14:22:00,
2013-12-12 07:27:00,3.4,-11.9,31.92,South,180,0.0,0.0,48,0.00,,,0.00,meteohub,2013-12-12 14:27:00,
2013-12-12 07:32:00,3.6,-11.7,31.92,South,180,0.0,0.0,48,0.00,,,0.00,meteohub,2013-12-12 14:32:00,
2013-12-12 07:37:00,4.1,-11.2,31.92,SW,225,0.0,0.0,48,0.00,,,0.00,meteohub,2013-12-12 14:37:00,
2013-12-12 07:42:00,5.0,-10.5,31.93,South,180,0.0,0.0,48,0.00,,,0.00,meteohub,2013-12-12 14:42:00,
2013-12-12 07:47:00,5.7,-9.8,31.92,SE,135,0.0,0.0,48,0.00,,,0.00,meteohub,2013-12-12 14:47:00,
2013-12-12 07:52:00,6.6,-8.9,31.93,SE,135,0.0,0.0,48,0.00,,,0.00,meteohub,2013-12-12 14:52:00,
2013-12-12 07:57:00,7.2,-8.9,31.93,SE,135,0.0,0.0,47,0.00,,,0.00,meteohub,2013-12-12 14:57:00,
2013-12-12 08:02:00,7.3,-9.0,31.93,SE,135,0.0,0.0,46,0.00,,,0.00,meteohub,2013-12-12 15:02:00,
2013-12-12 08:07:00,8.6,-8.3,31.93,SE,135,0.0,0.0,45,0.00,,,0.00,meteohub,2013-12-12 15:07:00,
2013-12-12 08:12:00,10.8,-4.7,31.92,SE,135,0.0,0.0,49,0.00,,,0.00,meteohub,2013-12-12 15:12:00,
2013-12-12 08:17:00,12.7,-3.6,31.92,SE,135,0.0,0.0,47,0.00,,,0.00,meteohub,2013-12-12 15:17:00,
2013-12-12 08:22:00,15.1,-2.4,31.92,SE,135,0.0,0.0,45,0.00,,,0.00,meteohub,2013-12-12 15:22:00,
2013-12-12 08:27:00,17.1,-1.7,31.93,ESE,113,0.0,0.0,43,0.00,,,0.00,meteohub,2013-12-12 15:27:00,
2013-12-12 08:32:00,18.7,-1.1,31.92,SE,135,0.0,0.0,41,0.00,,,0.00,meteohub,2013-12-12 15:32:00,
2013-12-12 08:37:00,20.8,2.8,31.93,SE,135,0.0,0.0,45,0.00,,,0.00,meteohub,2013-12-12 15:37:00,
2013-12-12 08:42:00,21.9,0.7,31.92,SW,225,0.0,0.0,39,0.00,,,0.00,meteohub,2013-12-12 15:42:00,
2013-12-12 08:48:00,23.4,0.3,31.92,NE,45,0.0,0.0,36,0.00,,,0.00,meteohub,2013-12-12 15:48:00,
2013-12-12 08:53:00,24.8,-0.2,31.92,NW,315,0.0,0.0,33,0.00,,,0.00,meteohub,2013-12-12 15:53:00,
2013-12-12 08:58:00,26.2,0.3,31.92,SW,225,0.0,0.0,32,0.00,,,0.00,meteohub,2013-12-12 15:58:00,
2013-12-12 09:03:00,26.6,-0.8,31.92,West,270,0.0,0.0,30,0.00,,,0.00,meteohub,2013-12-12 16:03:00,
2013-12-12 09:08:00,27.7,-2.0,31.92,North,0,0.0,0.0,27,0.00,,,0.00,meteohub,2013-12-12 16:08:00,
2013-12-12 09:14:00,27.3,-2.2,31.92,NE,45,0.0,0.0,27,0.00,,,0.00,meteohub,2013-12-12 16:14:00,
2013-12-12 09:19:00,28.9,2.8,31.92,SE,135,0.0,0.0,32,0.00,,,0.00,meteohub,2013-12-12 16:19:00,
2013-12-12 09:24:00,28.2,-1.5,31.92,East,90,0.0,0.0,27,0.00,,,0.00,meteohub,2013-12-12 16:24:00,
2013-12-12 09:29:00,28.2,-1.5,31.92,East,90,0.0,0.0,27,0.00,,,0.00,meteohub,2013-12-12 16:29:00,
2013-12-12 09:34:00,28.8,1.9,31.92,NE,45,0.0,0.0,31,0.00,,,0.00,meteohub,2013-12-12 16:34:00,
2013-12-12 09:39:00,29.1,1.6,31.92,North,0,0.0,0.0,30,0.00,,,0.00,meteohub,2013-12-12 16:39:00,
2013-12-12 09:45:00,30.0,2.3,31.92,North,0,2.0,0.0,30,0.00,,,0.00,meteohub,2013-12-12 16:45:00,
2013-12-12 09:50:00,29.8,1.4,31.91,NE,45,2.0,2.0,29,0.00,,,0.00,meteohub,2013-12-12 16:50:00,
2013-12-12 09:55:00,29.1,0.9,31.91,NE,45,0.0,2.0,29,0.00,,,0.00,meteohub,2013-12-12 16:55:00,
2013-12-12 10:00:00,28.9,0.7,31.91,NE,45,0.0,2.0,29,0.00,,,0.00,meteohub,2013-12-12 17:00:00,
2013-12-12 10:05:00,28.4,0.1,31.91,North,0,2.0,3.0,29,0.00,,,0.00,meteohub,2013-12-12 17:05:00,
2013-12-12 10:10:00,27.9,-3.5,31.90,NE,45,2.0,3.0,25,0.00,,,0.00,meteohub,2013-12-12 17:10:00,
2013-12-12 10:16:00,27.3,-3.8,31.90,NNE,23,3.0,3.0,25,0.00,,,0.00,meteohub,2013-12-12 17:16:00,
2013-12-12 10:21:00,27.0,-4.2,31.90,NE,45,2.0,3.0,25,0.00,,,0.00,meteohub,2013-12-12 17:21:00,
2013-12-12 10:26:00,27.0,-4.2,31.90,North,0,2.0,3.0,25,0.00,,,0.00,meteohub,2013-12-12 17:26:00,
2013-12-12 10:31:00,27.1,-3.3,31.90,West,270,2.0,3.0,26,0.00,,,0.00,meteohub,2013-12-12 17:31:00,
2013-12-12 10:36:00,27.3,-3.1,31.90,NE,45,3.0,3.0,26,0.00,,,0.00,meteohub,2013-12-12 17:36:00,
2013-12-12 10:42:00,27.5,-2.9,31.89,South,180,0.0,3.0,26,0.00,,,0.00,meteohub,2013-12-12 17:42:00,
2013-12-12 10:47:00,28.8,1.9,31.90,East,90,2.0,3.0,31,0.00,,,0.00,meteohub,2013-12-12 17:47:00,
2013-12-12 10:52:00,30.6,2.8,31.89,NW,315,2.0,3.0,30,0.00,,,0.00,meteohub,2013-12-12 17:52:00,
2013-12-12 10:57:00,33.1,4.3,31.89,West,270,0.0,2.0,29,0.00,,,0.00,meteohub,2013-12-12 17:57:00,
2013-12-12 11:02:00,34.5,4.8,31.89,NE,45,2.0,2.0,28,0.00,,,0.00,meteohub,2013-12-12 18:02:00,
2013-12-12 11:07:00,34.5,4.8,31.88,NE,45,2.0,2.0,28,0.00,,,0.00,meteohub,2013-12-12 18:07:00,
2013-12-12 11:12:00,39.4,8.2,31.87,NW,315,2.0,2.0,27,0.00,,,0.00,meteohub,2013-12-12 18:12:00,
2013-12-12 11:17:00,41.2,9.0,31.87,NW,315,2.0,2.0,26,0.00,,,0.00,meteohub,2013-12-12 18:17:00,
2013-12-12 11:22:00,42.1,8.8,31.87,SW,225,1.0,2.0,25,0.00,,,0.00,meteohub,2013-12-12 18:22:00,
2013-12-12 11:27:00,43.3,9.0,31.87,NE,45,3.0,3.0,24,0.00,,,0.00,meteohub,2013-12-12 18:27:00,
2013-12-12 11:32:00,44.4,9.0,31.87,West,270,2.0,3.0,23,0.00,,,0.00,meteohub,2013-12-12 18:32:00,
2013-12-12 11:37:00,45.3,8.8,31.86,North,0,2.0,4.0,22,0.00,,,0.00,meteohub,2013-12-12 18:37:00,
2013-12-12 11:42:00,45.7,9.0,31.86,NE,45,3.0,4.0,22,0.00,,,0.00,meteohub,2013-12-12 18:42:00,
2013-12-12 11:47:00,46.0,9.3,31.86,NE,45,4.0,4.0,22,0.00,,,0.00,meteohub,2013-12-12 18:47:00,
2013-12-12 11:52:00,46.0,9.3,31.85,NW,315,2.0,5.0,22,0.00,,,0.00,meteohub,2013-12-12 18:52:00,
2013-12-12 11:57:00,46.4,12.6,31.85,SW,225,3.0,5.0,25,0.00,,,0.00,meteohub,2013-12-12 18:57:00,
2013-12-12 12:02:00,46.8,12.7,31.85,NE,45,4.0,5.0,25,0.00,,,0.00,meteohub,2013-12-12 19:02:00,
2013-12-12 12:07:00,46.6,12.6,31.85,NW,315,2.0,4.0,25,0.00,,,0.00,meteohub,2013-12-12 19:07:00,
2013-12-12 12:12:00,47.5,13.5,31.84,NE,45,2.0,4.0,25,0.00,,,0.00,meteohub,2013-12-12 19:12:00,
2013-12-12 12:17:00,47.7,13.5,31.84,SW,225,2.0,4.0,25,0.00,,,0.00,meteohub,2013-12-12 19:17:00,
2013-12-12 12:22:00,48.2,13.1,31.84,West,270,2.0,4.0,24,0.00,,,0.00,meteohub,2013-12-12 19:22:00,
2013-12-12 12:27:00,48.2,13.1,31.83,SW,225,2.0,6.0,24,0.00,,,0.00,meteohub,2013-12-12 19:27:00,
2013-12-12 12:32:00,47.8,13.6,31.83,North,0,3.0,6.0,25,0.00,,,0.00,meteohub,2013-12-12 19:32:00,
2013-12-12 12:37:00,46.8,12.7,31.83,NW,315,2.0,6.0,25,0.00,,,0.00,meteohub,2013-12-12 19:37:00,
2013-12-12 12:42:00,46.6,12.6,31.83,NE,45,3.0,5.0,25,0.00,,,0.00,meteohub,2013-12-12 19:42:00,
2013-12-12 12:47:00,46.6,12.6,31.83,East,90,4.0,4.0,25,0.00,,,0.00,meteohub,2013-12-12 19:47:00,
2013-12-12 12:52:00,46.4,12.6,31.82,NNE,23,8.0,8.0,25,0.00,,,0.00,meteohub,2013-12-12 19:52:00,
2013-12-12 12:57:00,46.0,8.2,31.82,North,0,3.0,8.0,21,0.00,,,0.00,meteohub,2013-12-12 19:57:00,
2013-12-12 13:02:00,45.9,8.1,31.82,West,270,4.0,8.0,21,0.00,,,0.00,meteohub,2013-12-12 20:02:00,
2013-12-12 13:07:00,46.2,8.4,31.81,North,0,3.0,8.0,21,0.00,,,0.00,meteohub,2013-12-12 20:07:00,
2013-12-12 13:13:00,45.5,7.9,31.81,North,0,4.0,5.0,21,0.00,,,0.00,meteohub,2013-12-12 20:13:00,
2013-12-12 13:18:00,43.9,7.5,31.81,NNW,338,3.0,4.0,22,0.00,,,0.00,meteohub,2013-12-12 20:18:00,
2013-12-12 13:23:00,43.2,6.8,31.81,South,180,3.0,5.0,22,0.00,,,0.00,meteohub,2013-12-12 20:23:00,
2013-12-12 13:28:00,42.6,7.3,31.80,North,0,3.0,5.0,23,0.00,,,0.00,meteohub,2013-12-12 20:28:00,
2013-12-12 13:33:00,42.3,8.1,31.80,North,0,2.0,5.0,24,0.00,,,0.00,meteohub,2013-12-12 20:33:00,
2013-12-12 13:39:00,41.5,7.3,31.80,SE,135,4.0,5.0,24,0.00,,,0.00,meteohub,2013-12-12 20:39:00,
2013-12-12 13:44:00,41.4,7.3,31.80,NE,45,4.0,5.0,24,0.00,,,0.00,meteohub,2013-12-12 20:44:00,
2013-12-12 13:49:00,41.0,7.0,31.80,North,0,5.0,5.0,24,0.00,,,0.00,meteohub,2013-12-12 20:49:00,
2013-12-12 13:54:00,41.0,7.0,31.80,NE,45,4.0,5.0,24,0.00,,,0.00,meteohub,2013-12-12 20:54:00,
2013-12-12 13:59:00,41.0,7.0,31.80,NNE,23,4.0,5.0,24,0.00,,,0.00,meteohub,2013-12-12 20:59:00,
2013-12-12 14:04:00,41.2,8.1,31.80,East,90,3.0,5.0,25,0.00,,,0.00,meteohub,2013-12-12 21:04:00,
2013-12-12 14:10:00,41.0,7.9,31.79,North,0,3.0,4.0,25,0.00,,,0.00,meteohub,2013-12-12 21:10:00,
2013-12-12 14:15:00,41.0,7.9,31.80,NE,45,3.0,5.0,25,0.00,,,0.00,meteohub,2013-12-12 21:15:00,
2013-12-12 14:20:00,41.0,8.8,31.79,SSW,203,2.0,5.0,26,0.00,,,0.00,meteohub,2013-12-12 21:20:00,
2013-12-12 14:25:00,40.8,8.6,31.79,NE,45,2.0,5.0,26,0.00,,,0.00,meteohub,2013-12-12 21:25:00,
2013-12-12 14:30:00,40.3,9.0,31.79,SW,225,2.0,4.0,27,0.00,,,0.00,meteohub,2013-12-12 21:30:00,
2013-12-12 14:35:00,39.7,8.4,31.79,NE,45,2.0,5.0,27,0.00,,,0.00,meteohub,2013-12-12 21:35:00,
2013-12-12 14:40:00,39.4,8.2,31.79,NW,315,4.0,5.0,27,0.00,,,0.00,meteohub,2013-12-12 21:40:00,
2013-12-12 14:45:00,38.8,8.4,31.79,North,0,2.0,4.0,28,0.00,,,0.00,meteohub,2013-12-12 21:45:00,
2013-12-12 14:50:00,38.5,8.2,31.79,NW,315,1.0,4.0,28,0.00,,,0.00,meteohub,2013-12-12 21:50:00,
2013-12-12 14:56:00,38.1,7.9,31.79,ESE,113,2.0,4.0,28,0.00,,,0.00,meteohub,2013-12-12 21:56:00,
2013-12-12 15:01:00,37.9,7.7,31.79,West,270,4.0,4.0,28,0.00,,,0.00,meteohub,2013-12-12 22:01:00,
2013-12-12 15:06:00,37.9,7.7,31.78,West,270,4.0,4.0,28,0.00,,,0.00,meteohub,2013-12-12 22:06:00,
2013-12-12 15:11:00,37.0,3.6,31.78,NW,315,4.0,4.0,24,0.00,,,0.00,meteohub,2013-12-12 22:11:00,
2013-12-12 15:16:00,36.5,3.9,31.78,SE,135,2.0,4.0,25,0.00,,,0.00,meteohub,2013-12-12 22:16:00,
2013-12-12 15:22:00,36.3,3.9,31.78,North,0,3.0,4.0,25,0.00,,,0.00,meteohub,2013-12-12 22:22:00,
2013-12-12 15:27:00,36.3,3.9,31.78,West,270,1.0,4.0,25,0.00,,,0.00,meteohub,2013-12-12 22:27:00,
2013-12-12 15:32:00,35.8,3.4,31.78,North,0,2.0,4.0,25,0.00,,,0.00,meteohub,2013-12-12 22:32:00,
2013-12-12 15:37:00,35.8,3.4,31.78,NE,45,2.0,4.0,25,0.00,,,0.00,meteohub,2013-12-12 22:37:00,
2013-12-12 15:42:00,35.6,3.2,31.78,North,0,3.0,3.0,25,0.00,,,0.00,meteohub,2013-12-12 22:42:00,
2013-12-12 15:47:00,35.4,3.9,31.78,SW,225,2.0,3.0,26,0.00,,,0.00,meteohub,2013-12-12 22:47:00,
2013-12-12 15:52:00,35.1,3.6,31.78,SE,135,1.0,3.0,26,0.00,,,0.00,meteohub,2013-12-12 22:52:00,
2013-12-12 15:57:00,34.7,3.4,31.78,SW,225,2.0,3.0,26,0.00,,,0.00,meteohub,2013-12-12 22:57:00,
2013-12-12 16:02:00,34.2,2.8,31.78,NW,315,1.0,3.0,26,0.00,,,0.00,meteohub,2013-12-12 23:02:00,
2013-12-12 16:07:00,33.8,2.5,31.78,SW,225,2.0,4.0,26,0.00,,,0.00,meteohub,2013-12-12 23:07:00,
2013-12-12 16:12:00,33.4,3.0,31.78,NW,315,0.0,7.0,27,0.00,,,0.00,meteohub,2013-12-12 23:12:00,
2013-12-12 16:17:00,33.1,2.7,31.79,SW,225,1.0,7.0,27,0.00,,,0.00,meteohub,2013-12-12 23:17:00,
2013-12-12 16:22:00,32.4,1.2,31.78,West,270,2.0,7.0,26,0.00,,,0.00,meteohub,2013-12-12 23:22:00,
2013-12-12 16:27:00,32.0,1.0,31.78,SW,225,2.0,4.0,26,0.00,,,0.00,meteohub,2013-12-12 23:27:00,
2013-12-12 16:32:00,31.8,1.6,31.79,West,270,2.0,4.0,27,0.00,,,0.00,meteohub,2013-12-12 23:32:00,
2013-12-12 16:37:00,31.1,1.8,31.79,SW,225,2.0,4.0,28,0.00,,,0.00,meteohub,2013-12-12 23:37:00,
2013-12-12 16:42:00,30.2,1.0,31.79,South,180,0.0,4.0,28,0.00,,,0.00,meteohub,2013-12-12 23:42:00,
2013-12-12 16:47:00,29.5,1.0,31.78,South,180,0.0,2.0,29,0.00,,,0.00,meteohub,2013-12-12 23:47:00,
2013-12-12 16:52:00,28.8,0.5,31.78,SE,135,1.0,2.0,29,0.00,,,0.00,meteohub,2013-12-12 23:52:00,
2013-12-12 16:57:00,28.4,0.1,31.78,West,270,2.0,2.0,29,0.00,,,0.00,meteohub,2013-12-12 23:57:00,
2013-12-12 17:02:00,28.2,-3.1,31.78,SE,135,0.0,2.0,25,0.00,,,0.00,meteohub,2013-12-13 00:02:00,
2013-12-12 17:07:00,28.2,-3.1,31.78,SE,135,0.0,2.0,25,0.00,,,0.00,meteohub,2013-12-13 00:07:00,
2013-12-12 17:12:00,26.8,-3.5,31.78,West,270,1.0,2.0,26,0.00,,,0.00,meteohub,2013-12-13 00:12:00,
2013-12-12 17:17:00,26.2,-3.3,31.78,SW,225,0.0,2.0,27,0.00,,,0.00,meteohub,2013-12-13 00:17:00,
2013-12-12 17:22:00,26.1,-3.3,31.78,SW,225,0.0,2.0,27,0.00,,,0.00,meteohub,2013-12-13 00:22:00,
2013-12-12 17:27:00,25.9,-2.7,31.78,SW,225,0.0,2.0,28,0.00,,,0.00,meteohub,2013-12-13 00:27:00,
2013-12-12 17:32:00,25.5,-3.1,31.78,SW,225,0.0,1.0,28,0.00,,,0.00,meteohub,2013-12-13 00:32:00,
2013-12-12 17:37:00,25.3,-3.3,31.78,SW,225,0.0,0.0,28,0.00,,,0.00,meteohub,2013-12-13 00:37:00,
2013-12-12 17:42:00,24.8,-3.6,31.78,SW,225,0.0,0.0,28,0.00,,,0.00,meteohub,2013-12-13 00:42:00,
2013-12-12 17:47:00,24.6,-3.1,31.77,South,180,0.0,0.0,29,0.00,,,0.00,meteohub,2013-12-13 00:47:00,
2013-12-12 17:52:00,24.4,-3.3,31.77,South,180,0.0,1.0,29,0.00,,,0.00,meteohub,2013-12-13 00:52:00,
2013-12-12 17:57:00,24.3,-3.5,31.78,South,180,0.0,1.0,29,0.00,,,0.00,meteohub,2013-12-13 00:57:00,
2013-12-12 18:02:00,23.9,-3.8,31.77,West,270,2.0,0.0,29,0.00,,,0.00,meteohub,2013-12-13 01:02:00,
2013-12-12 18:07:00,23.5,-4.0,31.77,West,270,2.0,2.0,29,0.00,,,0.00,meteohub,2013-12-13 01:07:00,
2013-12-12 18:12:00,23.7,-3.8,31.77,NW,315,4.0,4.0,29,0.00,,,0.00,meteohub,2013-12-13 01:12:00,
2013-12-12 18:17:00,24.4,-3.3,31.76,West,270,4.0,5.0,29,0.00,,,0.00,meteohub,2013-12-13 01:17:00,
2013-12-12 18:22:00,24.8,-3.6,31.76,West,270,4.0,5.0,28,0.00,,,0.00,meteohub,2013-12-13 01:22:00,
2013-12-12 18:27:00,25.0,-3.5,31.76,West,270,4.0,5.0,28,0.00,,,0.00,meteohub,2013-12-13 01:27:00,
2013-12-12 18:32:00,24.8,-3.6,31.76,West,270,3.0,5.0,28,0.00,,,0.00,meteohub,2013-12-13 01:32:00,
2013-12-12 18:37:00,24.6,-3.1,31.76,West,270,2.0,5.0,29,0.00,,,0.00,meteohub,2013-12-13 01:37:00,
2013-12-12 18:42:00,24.6,-2.4,31.76,SW,225,2.0,4.0,30,0.00,,,0.00,meteohub,2013-12-13 01:42:00,
2013-12-12 18:47:00,24.4,-2.6,31.76,WSW,248,2.0,4.0,30,0.00,,,0.00,meteohub,2013-12-13 01:47:00,
2013-12-12 18:52:00,24.1,-2.2,31.75,West,270,0.0,3.0,31,0.00,,,0.00,meteohub,2013-12-13 01:52:00,
2013-12-12 18:57:00,23.7,-2.6,31.76,NW,315,4.0,4.0,31,0.00,,,0.00,meteohub,2013-12-13 01:57:00,
2013-12-12 19:02:00,23.5,-2.0,31.76,NW,315,4.0,4.0,32,0.00,,,0.00,meteohub,2013-12-13 02:02:00,
2013-12-12 19:07:00,23.5,-2.0,31.75,NW,315,4.0,4.0,32,0.00,,,0.00,meteohub,2013-12-13 02:07:00,
2013-12-12 19:12:00,22.6,-1.5,31.76,SW,225,0.0,4.0,34,0.00,,,0.00,meteohub,2013-12-13 02:12:00,
2013-12-12 19:17:00,21.9,-1.5,31.76,South,180,0.0,4.0,35,0.00,,,0.00,meteohub,2013-12-13 02:17:00,
2013-12-12 19:22:00,21.2,-2.2,31.75,SW,225,0.0,4.0,35,0.00,,,0.00,meteohub,2013-12-13 02:22:00,
2013-12-12 19:27:00,20.5,-1.7,31.75,South,180,0.0,0.0,37,0.00,,,0.00,meteohub,2013-12-13 02:27:00,
2013-12-12 19:32:00,19.8,-2.4,31.75,South,180,0.0,0.0,37,0.00,,,0.00,meteohub,2013-12-13 02:32:00,
2013-12-12 19:37:00,19.0,-4.7,31.75,South,180,0.0,0.0,34,0.00,,,0.00,meteohub,2013-12-13 02:37:00,
2013-12-12 19:42:00,18.7,-5.1,31.75,SW,225,0.0,0.0,34,0.00,,,0.00,meteohub,2013-12-13 02:42:00,
2013-12-12 19:47:00,18.3,-5.4,31.75,South,180,0.0,0.0,34,0.00,,,0.00,meteohub,2013-12-13 02:47:00,
2013-12-12 19:52:00,17.8,-5.8,31.75,SW,225,0.0,0.0,34,0.00,,,0.00,meteohub,2013-12-13 02:52:00,
2013-12-12 19:57:00,17.4,-4.9,31.75,SW,225,0.0,0.0,36,0.00,,,0.00,meteohub,2013-12-13 02:57:00,
2013-12-12 20:02:00,17.4,-4.9,31.75,SW,225,0.0,0.0,36,0.00,,,0.00,meteohub,2013-12-13 03:02:00,
2013-12-12 20:07:00,17.2,-4.5,31.74,West,270,0.0,0.0,37,0.00,,,0.00,meteohub,2013-12-13 03:07:00,
2013-12-12 20:12:00,17.1,-4.7,31.74,West,270,0.0,2.0,37,0.00,,,0.00,meteohub,2013-12-13 03:12:00,
2013-12-12 20:17:00,16.9,-4.9,31.74,South,180,0.0,2.0,37,0.00,,,0.00,meteohub,2013-12-13 03:17:00,
2013-12-12 20:22:00,16.3,-5.4,31.74,South,180,0.0,0.0,37,0.00,,,0.00,meteohub,2013-12-13 03:22:00,
2013-12-12 20:27:00,15.8,-5.8,31.74,SW,225,0.0,0.0,37,0.00,,,0.00,meteohub,2013-12-13 03:27:00,
2013-12-12 20:32:00,15.8,-4.7,31.74,SW,225,0.0,0.0,39,0.00,,,0.00,meteohub,2013-12-13 03:32:00,
2013-12-12 20:37:00,15.8,-4.7,31.74,SW,225,0.0,1.0,39,0.00,,,0.00,meteohub,2013-12-13 03:37:00,
2013-12-12 20:42:00,15.6,-4.4,31.74,West,270,3.0,3.0,40,0.00,,,0.00,meteohub,2013-12-13 03:42:00,
2013-12-12 20:47:00,15.4,-4.0,31.74,SW,225,0.0,4.0,41,0.00,,,0.00,meteohub,2013-12-13 03:47:00,
2013-12-12 20:52:00,15.4,-4.0,31.74,West,270,0.0,4.0,41,0.00,,,0.00,meteohub,2013-12-13 03:52:00,
2013-12-12 20:57:00,14.9,-5.1,31.74,West,270,2.0,4.0,40,0.00,,,0.00,meteohub,2013-12-13 03:57:00,
2013-12-12 21:02:00,14.9,-4.5,31.74,West,270,0.0,3.0,41,0.00,,,0.00,meteohub,2013-12-13 04:02:00,
2013-12-12 21:07:00,15.1,-4.4,31.74,West,270,0.0,3.0,41,0.00,,,0.00,meteohub,2013-12-13 04:07:00,
2013-12-12 21:12:00,15.1,-4.9,31.74,SW,225,0.0,3.0,40,0.00,,,0.00,meteohub,2013-12-13 04:12:00,
2013-12-12 21:17:00,14.5,-5.4,31.73,SW,225,0.0,2.0,40,0.00,,,0.00,meteohub,2013-12-13 04:17:00,
2013-12-12 21:22:00,14.2,-5.8,31.73,West,270,0.0,0.0,40,0.00,,,0.00,meteohub,2013-12-13 04:22:00,
2013-12-12 21:27:00,14.0,-5.8,31.73,West,270,0.0,0.0,40,0.00,,,0.00,meteohub,2013-12-13 04:27:00,
2013-12-12 21:32:00,13.6,-5.3,31.73,West,270,0.0,0.0,42,0.00,,,0.00,meteohub,2013-12-13 04:32:00,
2013-12-12 21:37:00,13.3,-5.4,31.73,South,180,0.0,0.0,42,0.00,,,0.00,meteohub,2013-12-13 04:37:00,
2013-12-12 21:42:00,12.7,-6.0,31.73,South,180,0.0,0.0,42,0.00,,,0.00,meteohub,2013-12-13 04:42:00,
2013-12-12 21:47:00,12.6,-5.6,31.73,West,270,0.0,0.0,43,0.00,,,0.00,meteohub,2013-12-13 04:47:00,
2013-12-12 21:52:00,12.4,-5.4,31.73,West,270,0.0,0.0,44,0.00,,,0.00,meteohub,2013-12-13 04:52:00,
2013-12-12 21:57:00,12.2,-5.6,31.73,South,180,0.0,0.0,44,0.00,,,0.00,meteohub,2013-12-13 04:57:00,
2013-12-12 22:01:00,11.8,-5.4,31.73,South,180,0.0,0.0,45,0.00,,,0.00,meteohub,2013-12-13 05:01:00,
2013-12-12 22:02:00,11.8,-5.4,31.73,South,180,0.0,0.0,45,0.00,,,0.00,meteohub,2013-12-13 05:02:00,
2013-12-12 22:03:00,11.7,-5.6,31.73,South,180,0.0,0.0,45,0.00,,,0.00,meteohub,2013-12-13 05:03:00,
2013-12-12 22:05:00,11.5,-5.8,31.73,South,180,0.0,0.0,45,0.00,,,0.00,meteohub,2013-12-13 05:05:00,
2013-12-12 22:07:00,11.3,-6.0,31.73,West,270,0.0,0.0,45,0.00,,,0.00,meteohub,2013-12-13 05:07:00,
2013-12-12 22:12:00,10.9,-6.2,31.73,South,180,0.0,0.0,45,0.00,,,0.00,meteohub,2013-12-13 05:12:00,
2013-12-12 22:17:00,10.4,-6.7,31.73,SW,225,0.0,0.0,45,0.00,,,0.00,meteohub,2013-12-13 05:17:00,
2013-12-12 22:22:00,10.0,-9.0,31.73,West,270,0.0,0.0,41,0.00,,,0.00,meteohub,2013-12-13 05:22:00,
2013-12-12 22:27:00,10.4,-6.3,31.72,South,180,0.0,0.0,46,0.00,,,0.00,meteohub,2013-12-13 05:27:00,
2013-12-12 22:32:00,10.0,-8.5,31.72,NW,315,0.0,0.0,42,0.00,,,0.00,meteohub,2013-12-13 05:32:00,
2013-12-12 22:37:00,9.9,-8.7,31.72,SW,225,0.0,0.0,42,0.00,,,0.00,meteohub,2013-12-13 05:37:00,
2013-12-12 22:42:00,9.5,-9.0,31.72,SW,225,0.0,0.0,42,0.00,,,0.00,meteohub,2013-12-13 05:42:00,
2013-12-12 22:47:00,9.1,-9.2,31.72,SW,225,0.0,0.0,42,0.00,,,0.00,meteohub,2013-12-13 05:47:00,
2013-12-12 22:52:00,8.8,-9.6,31.72,SW,225,0.0,0.0,42,0.00,,,0.00,meteohub,2013-12-13 05:52:00,
2013-12-12 22:57:00,9.0,-9.0,31.71,SW,225,0.0,0.0,43,0.00,,,0.00,meteohub,2013-12-13 05:57:00,
2013-12-12 23:02:00,9.1,-8.9,31.71,SW,225,0.0,0.0,43,0.00,,,0.00,meteohub,2013-12-13 06:02:00,
2013-12-12 23:07:00,9.3,-8.1,31.71,SW,225,0.0,0.0,44,0.00,,,0.00,meteohub,2013-12-13 06:07:00,
2013-12-12 23:12:00,9.3,-8.1,31.71,SW,225,0.0,0.0,44,0.00,,,0.00,meteohub,2013-12-13 06:12:00,
2013-12-12 23:17:00,9.5,-8.0,31.71,SW,225,0.0,0.0,44,0.00,,,0.00,meteohub,2013-12-13 06:17:00,
2013-12-12 23:22:00,9.5,-8.0,31.70,SW,225,0.0,0.0,44,0.00,,,0.00,meteohub,2013-12-13 06:22:00,
2013-12-12 23:27:00,9.9,-8.1,31.71,SW,225,0.0,0.0,43,0.00,,,0.00,meteohub,2013-12-13 06:27:00,
2013-12-12 23:32:00,9.7,-8.3,31.70,West,270,0.0,0.0,43,0.00,,,0.00,meteohub,2013-12-13 06:32:00,
2013-12-12 23:37:00,9.5,-8.5,31.70,SE,135,0.0,0.0,43,0.00,,,0.00,meteohub,2013-12-13 06:37:00,
2013-12-12 23:42:00,9.3,-8.7,31.70,SW,225,0.0,0.0,43,0.00,,,0.00,meteohub,2013-12-13 06:42:00,
2013-12-12 23:47:00,9.0,-9.0,31.70,NW,315,0.0,0.0,43,0.00,,,0.00,meteohub,2013-12-13 06:47:00,
2013-12-12 23:52:00,8.6,-9.4,31.70,SW,225,0.0,0.0,43,0.00,,,0.00,meteohub,2013-12-13 06:52:00,
2013-12-12 23:57:00,8.4,-9.0,31.69,SW,225,0.0,0.0,44,0.00,,,0.00,meteohub,2013-12-13 06:57:00,